Time;durP1;ratioP1;P1;durP2;ratioP2;P2;SDS_P1;SDS_P2;PMS_P1;PMS_P2;Temp;Humidity;BMP_temperature;BMP_pressure;BME280_temperature;BME280_humidity;BME280_pressure;Samples;Min_cycle;Max_cycle;Signal;HPM_P1;HPM_P2
2022/10/03 00:00:13;;;;;;;28.23;18.35;;;;;;;;;;4930570;29;20043;-83
2022/10/03 00:02:38;;;;;;;28.55;19.67;;;;;;;;;;4965432;28;20050;-83
2022/10/03 00:05:07;;;;;;;28.75;20.20;;;;;;;;;;4964049;28;20145;-83
2022/10/03 00:07:55;;;;;;;27.63;20.95;;;;;;;;;;4964468;28;20091;-84
2022/10/03 00:10:40;;;;;;;25.75;19.67;;;;;;;;;;4952369;29;20055;-83
2022/10/03 00:13:24;;;;;;;18.55;16.25;;;;;;;;;;4982850;28;20053;-82
2022/10/03 00:16:13;;;;;;;22.23;17.35;;;;;;;;;;4960743;28;20030;-86
2022/10/03 00:18:45;;;;;;;30.52;21.02;;;;;;;;;;4990634;28;20050;-87
2022/10/03 00:21:20;;;;;;;19.17;17.13;;;;;;;;;;5347745;23;20025;-82
2022/10/03 00:23:54;;;;;;;23.10;18.30;;;;;;;;;;4978073;28;20047;-85
2022/10/03 00:26:46;;;;;;;27.88;20.30;;;;;;;;;;4959996;29;20112;-85
2022/10/03 00:29:21;;;;;;;30.25;21.10;;;;;;;;;;4945337;29;20043;-84
2022/10/03 00:32:08;;;;;;;22.65;18.17;;;;;;;;;;4961574;28;20106;-82
2022/10/03 00:34:52;;;;;;;19.83;17.55;;;;;;;;;;4978921;28;20089;-84
2022/10/03 00:37:27;;;;;;;26.15;20.88;;;;;;;;;;4978528;28;20067;-87
2022/10/03 00:40:05;;;;;;;18.25;16.30;;;;;;;;;;5042580;23;20080;-85
2022/10/03 00:42:34;;;;;;;28.50;22.60;;;;;;;;;;4959455;28;20068;-86
2022/10/03 00:45:11;;;;;;;24.63;19.00;;;;;;;;;;4957268;29;20071;-84
2022/10/03 00:48:00;;;;;;;32.38;23.88;;;;;;;;;;4971726;28;20133;-82
2022/10/03 00:50:44;;;;;;;21.90;18.23;;;;;;;;;;4966016;28;20051;-82
2022/10/03 00:53:31;;;;;;;21.83;17.33;;;;;;;;;;4953436;28;20448;-81
2022/10/03 00:56:01;;;;;;;14.48;12.32;;;;;;;;;;4942351;29;20122;-81
2022/10/03 00:58:45;;;;;;;21.00;18.17;;;;;;;;;;4967055;28;20043;-81
2022/10/03 01:01:27;;;;;;;29.67;22.25;;;;;;;;;;4972403;28;20084;-83
2022/10/03 01:03:59;;;;;;;33.78;21.83;;;;;;;;;;4948938;29;20047;-83
2022/10/03 01:06:43;;;;;;;25.70;18.08;;;;;;;;;;4947379;29;20043;-81
2022/10/03 01:09:11;;;;;;;33.00;21.83;;;;;;;;;;4947580;29;20059;-82
2022/10/03 01:11:59;;;;;;;22.15;18.65;;;;;;;;;;4956711;28;20087;-82
2022/10/03 01:14:36;;;;;;;18.13;15.50;;;;;;;;;;4972349;28;20047;-82
2022/10/03 01:17:21;;;;;;;18.55;16.40;;;;;;;;;;4969719;28;20047;-80
2022/10/03 01:19:47;;;;;;;32.00;22.67;;;;;;;;;;4971529;28;20071;-81
2022/10/03 01:22:20;;;;;;;29.95;21.88;;;;;;;;;;4974409;28;20051;-84
2022/10/03 01:27:26;;;;;;;;;;;;;;;;;;4958619;28;20059;-84
2022/10/03 01:32:40;;;;;;;29.92;21.45;;;;;;;;;;5028401;23;20057;-85
2022/10/03 01:35:25;;;;;;;24.90;18.88;;;;;;;;;;4994779;28;20031;-82
2022/10/03 01:37:54;;;;;;;21.25;19.00;;;;;;;;;;4974180;28;20102;-84
2022/10/03 01:40:29;;;;;;;32.60;22.25;;;;;;;;;;4977544;28;20027;-84
2022/10/03 01:43:04;;;;;;;20.52;15.73;;;;;;;;;;4974344;28;20134;-84
2022/10/03 01:45:29;;;;;;;19.25;11.27;;;;;;;;;;5115750;23;20069;-84
2022/10/03 01:48:00;;;;;;;25.35;20.98;;;;;;;;;;4973374;28;20034;-81
2022/10/03 01:50:26;;;;;;;27.05;18.45;;;;;;;;;;4993356;28;20034;-83
2022/10/03 01:53:04;;;;;;;21.75;17.58;;;;;;;;;;4991460;28;20105;-83
2022/10/03 01:55:32;;;;;;;29.60;21.85;;;;;;;;;;4988222;28;20050;-82
2022/10/03 01:57:59;;;;;;;29.33;21.42;;;;;;;;;;4987141;28;20055;-81
2022/10/03 02:00:25;;;;;;;23.77;20.08;;;;;;;;;;4989771;28;20035;-80
2022/10/03 02:03:12;;;;;;;12.20;11.07;;;;;;;;;;4971354;28;20058;-82
2022/10/03 02:05:49;;;;;;;13.65;12.38;;;;;;;;;;4951890;28;20188;-83
2022/10/03 02:08:17;;;;;;;18.67;15.90;;;;;;;;;;4972034;28;20070;-81
2022/10/03 02:10:45;;;;;;;15.65;13.77;;;;;;;;;;4988115;28;20089;-82
2022/10/03 02:13:19;;;;;;;15.23;13.73;;;;;;;;;;4986706;28;20043;-81
2022/10/03 02:16:24;;;;;;;10.35;9.48;;;;;;;;;;4975784;28;20042;-81
2022/10/03 02:19:02;;;;;;;14.90;13.50;;;;;;;;;;4991045;28;20077;-85
2022/10/03 02:21:31;;;;;;;10.95;10.05;;;;;;;;;;5110740;23;20058;-84
2022/10/03 02:24:20;;;;;;;20.48;16.33;;;;;;;;;;5086717;23;20091;-87
2022/10/03 02:27:05;;;;;;;14.95;13.43;;;;;;;;;;5165367;23;20039;-82
2022/10/03 02:29:34;;;;;;;14.65;13.10;;;;;;;;;;4993006;28;20054;-84
2022/10/03 02:32:00;;;;;;;17.70;15.88;;;;;;;;;;4997397;28;20103;-88
2022/10/03 02:34:31;;;;;;;19.88;17.88;;;;;;;;;;4997280;28;20047;-88
2022/10/03 02:36:57;;;;;;;15.07;11.75;;;;;;;;;;4964768;28;20043;-88
2022/10/03 02:42:03;;;;;;;;;;;;;;;;;;5486782;23;20021;-84
2022/10/03 02:44:48;;;;;;;21.02;16.63;;;;;;;;;;5189824;23;20023;-84
2022/10/03 02:47:23;;;;;;;13.80;12.50;;;;;;;;;;5368403;23;20055;-87
2022/10/03 02:49:57;;;;;;;14.27;13.00;;;;;;;;;;5086559;23;20043;-83
2022/10/03 02:55:40;;;;;;;11.25;10.18;;;;;;;;;;5547184;23;20041;-87
2022/10/03 02:58:06;;;;;;;14.73;13.35;;;;;;;;;;5583919;23;20025;-84
2022/10/03 03:00:51;;;;;;;10.25;9.32;;;;;;;;;;5446899;23;20035;-90
2022/10/03 03:06:16;;;;;;;12.23;11.23;;;;;;;;;;5685427;23;21027;-84
2022/10/03 03:08:57;;;;;;;10.63;9.55;;;;;;;;;;5154774;23;20760;-85
2022/10/03 03:11:24;;;;;;;12.18;11.00;;;;;;;;;;4998344;28;20045;-85
2022/10/03 03:14:09;;;;;;;14.20;12.68;;;;;;;;;;5239419;23;20082;-84
2022/10/03 03:28:14;;;;;;;15.50;13.13;;;;;;;;;;5062817;23;20062;-84
2022/10/03 03:30:50;;;;;;;12.68;9.57;;;;;;;;;;4979433;28;20070;-89
2022/10/03 03:33:23;;;;;;;40.22;20.45;;;;;;;;;;4983343;28;20046;-89
2022/10/03 03:35:58;;;;;;;15.73;14.07;;;;;;;;;;4997178;28;20051;-85
2022/10/03 03:38:42;;;;;;;19.75;17.75;;;;;;;;;;5094517;23;20066;-85
2022/10/03 03:41:27;;;;;;;14.02;12.73;;;;;;;;;;5170776;23;20059;-88
2022/10/03 03:44:05;;;;;;;17.00;15.25;;;;;;;;;;5129821;23;20032;-84
2022/10/03 03:49:36;;;;;;;22.95;20.45;;;;;;;;;;5020126;23;20063;-85
2022/10/03 03:52:02;;;;;;;27.25;23.45;;;;;;;;;;4978353;28;20053;-81
2022/10/03 03:54:37;;;;;;;30.30;25.30;;;;;;;;;;4990982;28;20098;-81
2022/10/03 03:57:07;;;;;;;24.52;20.70;;;;;;;;;;4972508;28;20465;-83
2022/10/03 03:59:52;;;;;;;43.13;30.15;;;;;;;;;;4972999;28;20043;-83
2022/10/03 04:02:18;;;;;;;46.47;31.05;;;;;;;;;;4994099;28;20042;-84
2022/10/03 04:04:55;;;;;;;46.47;32.47;;;;;;;;;;4996274;28;20062;-86
2022/10/03 04:07:21;;;;;;;65.68;42.13;;;;;;;;;;4994950;28;20061;-85
2022/10/03 04:09:47;;;;;;;57.55;38.30;;;;;;;;;;4994060;28;20054;-84
2022/10/03 04:12:29;;;;;;;32.47;25.38;;;;;;;;;;4995857;28;20038;-86
2022/10/03 04:15:14;;;;;;;54.03;38.88;;;;;;;;;;4979891;28;20062;-87
2022/10/03 04:20:47;;;;;;;38.63;27.77;;;;;;;;;;4997833;28;20051;-84
2022/10/03 04:23:23;;;;;;;20.63;17.75;;;;;;;;;;5053904;23;20032;-86
2022/10/03 04:26:09;;;;;;;29.02;23.83;;;;;;;;;;5120559;23;20059;-83
2022/10/03 04:28:35;;;;;;;17.05;15.52;;;;;;;;;;4963461;28;20118;-83
2022/10/03 04:31:15;;;;;;;16.15;14.73;;;;;;;;;;4988812;28;20037;-82
2022/10/03 04:33:47;;;;;;;21.40;19.27;;;;;;;;;;4980970;28;20125;-83
2022/10/03 04:36:13;;;;;;;18.10;16.25;;;;;;;;;;4999106;28;20034;-84
2022/10/03 04:38:56;;;;;;;14.50;13.07;;;;;;;;;;4965838;28;20126;-83
2022/10/03 04:41:28;;;;;;;16.85;15.40;;;;;;;;;;4983087;28;20019;-84
2022/10/03 04:44:13;;;;;;;21.15;16.70;;;;;;;;;;4987561;28;20033;-86
2022/10/03 04:46:48;;;;;;;17.02;15.50;;;;;;;;;;5169589;23;20081;-85
2022/10/03 04:49:21;;;;;;;16.38;14.90;;;;;;;;;;5090398;23;20116;-85
2022/10/03 04:52:06;;;;;;;11.38;10.40;;;;;;;;;;5190375;23;20363;-83
2022/10/03 04:54:47;;;;;;;17.85;16.10;;;;;;;;;;5251158;23;20046;-87
2022/10/03 05:03:09;;;;;;;21.00;11.32;;;;;;;;;;5484765;23;20040;-88
2022/10/03 05:05:47;;;;;;;14.88;11.93;;;;;;;;;;4899041;29;20056;-79
2022/10/03 05:08:13;;;;;;;13.57;12.10;;;;;;;;;;4941307;29;20043;-81
2022/10/03 05:10:38;;;;;;;11.43;10.45;;;;;;;;;;4940844;29;20050;-80
2022/10/03 05:13:10;;;;;;;21.77;12.68;;;;;;;;;;4937696;29;20060;-81
2022/10/03 05:15:39;;;;;;;16.10;11.75;;;;;;;;;;4942659;28;20137;-79
2022/10/03 05:18:13;;;;;;;13.45;11.85;;;;;;;;;;4946822;28;20043;-78
2022/10/03 05:20:53;;;;;;;11.15;10.13;;;;;;;;;;4917559;29;20043;-80
2022/10/03 05:23:33;;;;;;;13.82;11.23;;;;;;;;;;4915492;29;20055;-77
2022/10/03 05:25:59;;;;;;;12.45;11.38;;;;;;;;;;4946996;29;20543;-83
2022/10/03 05:28:45;;;;;;;9.70;8.90;;;;;;;;;;4946390;29;20043;-83
2022/10/03 05:31:14;;;;;;;10.55;9.48;;;;;;;;;;4942303;28;20214;-82
2022/10/03 05:33:46;;;;;;;12.48;11.35;;;;;;;;;;4958296;28;20047;-80
2022/10/03 05:36:26;;;;;;;14.35;10.57;;;;;;;;;;4956492;28;20539;-80
2022/10/03 05:39:10;;;;;;;11.13;10.07;;;;;;;;;;4940838;29;20054;-81
2022/10/03 05:41:36;;;;;;;14.65;9.88;;;;;;;;;;4926729;28;20049;-78
2022/10/03 05:44:18;;;;;;;14.45;9.25;;;;;;;;;;4967082;28;20075;-80
2022/10/03 05:47:03;;;;;;;11.15;9.68;;;;;;;;;;4947493;28;20158;-79
2022/10/03 05:49:44;;;;;;;9.35;8.55;;;;;;;;;;4958435;28;20098;-79
2022/10/03 05:52:31;;;;;;;9.05;8.15;;;;;;;;;;4937728;28;20045;-76
2022/10/03 05:54:57;;;;;;;10.35;9.32;;;;;;;;;;4955555;28;20043;-79
2022/10/03 05:57:23;;;;;;;7.70;6.90;;;;;;;;;;4953263;28;20053;-78
2022/10/03 05:59:49;;;;;;;10.18;8.85;;;;;;;;;;4938948;28;20134;-77
2022/10/03 06:02:31;;;;;;;13.50;8.38;;;;;;;;;;4931218;29;20083;-76
2022/10/03 06:05:00;;;;;;;8.52;7.72;;;;;;;;;;4935020;29;20051;-79
2022/10/03 06:07:32;;;;;;;14.60;8.60;;;;;;;;;;4900896;29;20051;-76
2022/10/03 06:10:18;;;;;;;7.93;6.35;;;;;;;;;;4914707;29;20050;-77
2022/10/03 06:13:06;;;;;;;10.55;9.30;;;;;;;;;;4930822;29;20043;-77
2022/10/03 06:16:08;;;;;;;10.20;8.65;;;;;;;;;;4918825;29;20047;-79
2022/10/03 06:18:52;;;;;;;9.45;6.70;;;;;;;;;;4855089;29;20482;-79
2022/10/03 06:21:22;;;;;;;8.10;7.30;;;;;;;;;;4926200;29;20128;-81
2022/10/03 06:24:07;;;;;;;8.38;6.60;;;;;;;;;;4905398;29;20100;-81
2022/10/03 06:26:43;;;;;;;7.43;4.90;;;;;;;;;;4942767;29;20050;-83
2022/10/03 06:29:41;;;;;;;7.18;5.95;;;;;;;;;;4937934;29;20039;-79
2022/10/03 06:32:10;;;;;;;7.53;5.63;;;;;;;;;;4905874;29;20146;-81
2022/10/03 06:34:40;;;;;;;6.55;5.93;;;;;;;;;;4923226;29;20127;-80
2022/10/03 06:37:09;;;;;;;5.72;5.22;;;;;;;;;;4938732;29;20103;-81
2022/10/03 06:39:54;;;;;;;9.48;5.72;;;;;;;;;;4947587;28;20075;-80
2022/10/03 06:42:28;;;;;;;8.18;5.55;;;;;;;;;;4958216;28;20043;-81
2022/10/03 06:45:17;;;;;;;5.85;5.32;;;;;;;;;;4943627;29;20059;-80
2022/10/03 06:47:43;;;;;;;5.40;4.90;;;;;;;;;;4946315;28;20520;-82
2022/10/03 06:50:12;;;;;;;8.35;5.55;;;;;;;;;;4935084;29;20054;-79
2022/10/03 06:52:41;;;;;;;7.82;6.00;;;;;;;;;;4938769;29;20128;-77
2022/10/03 06:55:22;;;;;;;5.75;5.25;;;;;;;;;;4932397;29;20067;-79
2022/10/03 06:57:55;;;;;;;6.07;4.97;;;;;;;;;;4934375;29;20066;-79
2022/10/03 07:00:26;;;;;;;4.28;3.97;;;;;;;;;;4933075;29;20035;-77
2022/10/03 07:02:56;;;;;;;6.38;5.75;;;;;;;;;;4917514;29;20047;-82
2022/10/03 07:05:41;;;;;;;8.68;4.65;;;;;;;;;;4938189;29;20047;-81
2022/10/03 07:08:07;;;;;;;7.05;4.85;;;;;;;;;;4940377;29;20542;-85
2022/10/03 07:10:51;;;;;;;9.32;5.75;;;;;;;;;;4940158;29;20066;-79
2022/10/03 07:13:27;;;;;;;5.15;4.32;;;;;;;;;;4936635;29;20362;-78
2022/10/03 07:16:09;;;;;;;8.02;4.57;;;;;;;;;;4935360;29;20043;-78
2022/10/03 07:18:53;;;;;;;8.93;6.13;;;;;;;;;;4929053;29;20044;-75
2022/10/03 07:21:23;;;;;;;5.70;5.15;;;;;;;;;;4927112;29;20567;-77
2022/10/03 07:24:15;;;;;;;4.40;4.10;;;;;;;;;;4931574;29;20055;-75
2022/10/03 07:27:00;;;;;;;6.70;5.63;;;;;;;;;;4902992;29;20423;-77
2022/10/03 07:29:34;;;;;;;13.07;5.70;;;;;;;;;;4916572;29;20476;-75
2022/10/03 07:32:19;;;;;;;4.97;4.55;;;;;;;;;;4916207;29;20602;-75
2022/10/03 07:35:03;;;;;;;10.20;5.15;;;;;;;;;;4932199;29;20054;-75
2022/10/03 07:40:51;;;;;;;5.97;5.13;;;;;;;;;;4933976;29;20047;-75
2022/10/03 07:43:23;;;;;;;4.65;4.35;;;;;;;;;;4933673;29;20503;-75
2022/10/03 07:46:09;;;;;;;4.82;4.43;;;;;;;;;;4917153;29;20540;-76
2022/10/03 07:48:44;;;;;;;5.75;5.10;;;;;;;;;;4926620;29;20401;-76
2022/10/03 07:51:11;;;;;;;9.93;6.25;;;;;;;;;;4933522;29;20047;-75
2022/10/03 07:53:43;;;;;;;4.78;4.43;;;;;;;;;;4933725;29;20035;-74
2022/10/03 07:56:18;;;;;;;7.55;4.53;;;;;;;;;;4932860;29;20044;-75
2022/10/03 07:59:03;;;;;;;13.90;7.55;;;;;;;;;;4914128;29;20588;-74
2022/10/03 08:01:47;;;;;;;7.00;5.15;;;;;;;;;;4933091;29;20044;-74
2022/10/03 08:04:22;;;;;;;7.40;5.28;;;;;;;;;;4932998;29;20058;-75
2022/10/03 08:07:08;;;;;;;3.75;3.45;;;;;;;;;;4912861;29;20044;-75
2022/10/03 08:09:43;;;;;;;6.85;5.03;;;;;;;;;;4936244;29;20051;-75
2022/10/03 08:12:27;;;;;;;6.85;6.07;;;;;;;;;;4952346;28;20035;-75
2022/10/03 08:15:08;;;;;;;6.50;4.50;;;;;;;;;;4951191;28;20125;-75
2022/10/03 08:17:37;;;;;;;3.55;3.35;;;;;;;;;;4952607;28;20583;-77
2022/10/03 08:20:12;;;;;;;5.18;4.55;;;;;;;;;;4952762;28;20069;-75
2022/10/03 08:22:41;;;;;;;5.13;4.60;;;;;;;;;;4951419;28;20050;-74
2022/10/03 08:25:37;;;;;;;3.97;3.30;;;;;;;;;;4951870;28;20142;-74
2022/10/03 08:28:22;;;;;;;4.35;3.92;;;;;;;;;;4922859;29;20125;-73
2022/10/03 08:30:51;;;;;;;3.42;3.13;;;;;;;;;;4953675;28;20047;-79
2022/10/03 08:33:37;;;;;;;5.05;4.60;;;;;;;;;;4906454;29;20039;-75
2022/10/03 08:36:03;;;;;;;4.90;3.60;;;;;;;;;;4894576;29;20046;-76
2022/10/03 08:38:48;;;;;;;4.03;3.63;;;;;;;;;;4933813;29;20075;-76
2022/10/03 08:41:17;;;;;;;3.85;3.42;;;;;;;;;;4901114;29;20058;-75
2022/10/03 08:43:45;;;;;;;3.50;3.22;;;;;;;;;;4902417;29;20043;-77
2022/10/03 08:46:20;;;;;;;5.63;4.13;;;;;;;;;;4935917;29;20067;-74
2022/10/03 08:48:49;;;;;;;4.32;3.55;;;;;;;;;;4917185;29;20104;-76
2022/10/03 08:51:34;;;;;;;5.57;3.30;;;;;;;;;;4917310;29;20056;-78
2022/10/03 08:54:09;;;;;;;4.22;3.92;;;;;;;;;;4935559;29;20035;-77
2022/10/03 08:56:53;;;;;;;3.60;3.30;;;;;;;;;;4918508;29;20543;-77
2022/10/03 08:59:24;;;;;;;3.75;3.55;;;;;;;;;;4932430;29;20412;-75
2022/10/03 09:02:09;;;;;;;3.75;3.55;;;;;;;;;;4900899;29;20111;-75
2022/10/03 09:04:51;;;;;;;4.18;3.78;;;;;;;;;;4916364;28;20151;-75
2022/10/03 09:07:23;;;;;;;4.13;3.83;;;;;;;;;;4922206;29;20043;-75
2022/10/03 09:09:49;;;;;;;4.55;4.15;;;;;;;;;;4956101;28;20047;-75
2022/10/03 09:12:27;;;;;;;7.72;5.53;;;;;;;;;;4954473;28;20043;-76
2022/10/03 09:15:23;;;;;;;6.53;4.25;;;;;;;;;;4951775;28;20051;-75
2022/10/03 09:17:49;;;;;;;4.95;3.78;;;;;;;;;;4934899;28;20063;-75
2022/10/03 09:20:24;;;;;;;7.38;5.28;;;;;;;;;;4952329;28;20416;-75
2022/10/03 09:23:05;;;;;;;3.47;3.03;;;;;;;;;;4951934;28;20051;-75
2022/10/03 09:25:31;;;;;;;;;;;;;;;;;;4952575;28;20055;-76
2022/10/03 09:27:57;;;;;;;10.63;6.63;;;;;;;;;;4952181;28;19921;-78
2022/10/03 09:30:23;;;;;;;24.25;7.53;;;;;;;;;;4953706;28;20129;-79
2022/10/03 09:33:15;;;;;;;6.57;5.97;;;;;;;;;;4932680;29;20266;-78
2022/10/03 09:36:00;;;;;;;5.35;4.70;;;;;;;;;;4886375;29;20047;-77
2022/10/03 09:38:35;;;;;;;7.03;5.97;;;;;;;;;;4930921;29;20040;-78
2022/10/03 09:41:04;;;;;;;6.25;3.55;;;;;;;;;;4905271;29;20043;-78
2022/10/03 09:43:40;;;;;;;9.90;4.63;;;;;;;;;;4919876;29;20055;-78
2022/10/03 09:46:24;;;;;;;3.00;2.70;;;;;;;;;;4933807;29;20047;-79
2022/10/03 09:49:00;;;;;;;7.25;2.10;;;;;;;;;;4932874;29;20531;-75
2022/10/03 09:51:33;;;;;;;1.88;1.75;;;;;;;;;;4927122;29;20111;-75
2022/10/03 09:54:17;;;;;;;1.80;1.70;;;;;;;;;;4925414;29;20512;-75
2022/10/03 09:56:52;;;;;;;1.50;1.45;;;;;;;;;;4916673;29;20509;-76
2022/10/03 09:59:21;;;;;;;3.05;2.85;;;;;;;;;;4918710;29;20107;-76
2022/10/03 10:01:49;;;;;;;2.75;2.55;;;;;;;;;;4918835;29;20046;-76
2022/10/03 10:04:34;;;;;;;3.10;2.90;;;;;;;;;;4951483;28;20055;-76
2022/10/03 10:07:00;;;;;;;1.95;1.85;;;;;;;;;;4951537;28;20134;-74
2022/10/03 10:09:26;;;;;;;1.90;1.80;;;;;;;;;;4952056;28;20175;-78
2022/10/03 10:12:04;;;;;;;4.22;3.28;;;;;;;;;;4952724;28;20134;-77
2022/10/03 10:14:49;;;;;;;3.70;3.35;;;;;;;;;;4951723;28;20093;-77
2022/10/03 10:17:34;;;;;;;2.10;2.00;;;;;;;;;;4952571;28;20050;-78
2022/10/03 10:20:04;;;;;;;2.47;2.28;;;;;;;;;;4951714;28;20619;-77
2022/10/03 10:22:49;;;;;;;3.38;2.60;;;;;;;;;;4919925;28;20051;-77
2022/10/03 10:25:27;;;;;;;1.85;1.33;;;;;;;;;;4952095;28;20051;-78
2022/10/03 10:28:08;;;;;;;0.90;0.90;;;;;;;;;;4951613;28;20050;-76
2022/10/03 10:30:53;;;;;;;2.55;1.10;;;;;;;;;;4950300;28;20051;-76
2022/10/03 10:33:18;;;;;;;1.33;1.33;;;;;;;;;;4923532;29;20580;-76
2022/10/03 10:36:05;;;;;;;1.30;1.20;;;;;;;;;;4928232;29;20079;-76
2022/10/03 10:38:36;;;;;;;1.42;1.33;;;;;;;;;;4931209;29;20547;-75
2022/10/03 10:41:21;;;;;;;1.40;1.40;;;;;;;;;;4914820;29;20048;-78
2022/10/03 10:44:05;;;;;;;1.90;1.80;;;;;;;;;;4931435;29;20495;-76
2022/10/03 10:46:49;;;;;;;1.80;1.67;;;;;;;;;;4933161;29;20051;-77
2022/10/03 10:49:18;;;;;;;1.75;1.65;;;;;;;;;;4935128;29;20051;-77
2022/10/03 10:52:03;;;;;;;1.48;1.48;;;;;;;;;;4920263;29;20527;-78
2022/10/03 10:54:48;;;;;;;1.27;1.23;;;;;;;;;;4937087;29;20400;-78
2022/10/03 10:57:13;;;;;;;1.40;1.40;;;;;;;;;;4920981;29;20067;-78
2022/10/03 10:59:51;;;;;;;1.70;1.60;;;;;;;;;;4894623;29;20516;-79
2022/10/03 11:02:33;;;;;;;1.30;1.20;;;;;;;;;;4883692;29;20066;-78
2022/10/03 11:04:59;;;;;;;1.38;1.15;;;;;;;;;;4915384;29;20091;-75
2022/10/03 11:07:44;;;;;;;1.40;1.30;;;;;;;;;;4915036;29;20078;-78
2022/10/03 11:10:22;;;;;;;1.40;1.30;;;;;;;;;;4916001;29;20537;-75
2022/10/03 11:12:55;;;;;;;1.15;1.15;;;;;;;;;;4915963;29;20047;-75
2022/10/03 11:15:21;;;;;;;1.88;1.77;;;;;;;;;;4916152;29;20044;-75
2022/10/03 11:18:07;;;;;;;1.30;1.23;;;;;;;;;;4923999;29;20050;-74
2022/10/03 11:20:52;;;;;;;1.50;1.50;;;;;;;;;;4918053;29;20048;-77
2022/10/03 11:23:21;;;;;;;1.63;1.52;;;;;;;;;;4936877;29;20058;-77
2022/10/03 11:26:06;;;;;;;1.38;1.38;;;;;;;;;;4903609;29;20111;-80
2022/10/03 11:28:39;;;;;;;1.30;1.30;;;;;;;;;;4917425;29;20127;-77
2022/10/03 11:31:14;;;;;;;1.42;1.42;;;;;;;;;;4920492;29;20043;-77
2022/10/03 11:33:59;;;;;;;1.50;1.42;;;;;;;;;;4936755;29;20334;-76
2022/10/03 11:36:27;;;;;;;1.30;1.30;;;;;;;;;;4937680;29;20043;-77
2022/10/03 11:38:57;;;;;;;1.48;1.40;;;;;;;;;;4920545;29;20508;-78
2022/10/03 11:41:29;;;;;;;1.00;1.00;;;;;;;;;;4935018;29;20032;-79
2022/10/03 11:44:04;;;;;;;1.40;1.23;;;;;;;;;;4918074;29;20052;-78
2022/10/03 11:46:50;;;;;;;3.40;1.35;;;;;;;;;;4917631;29;20054;-77
2022/10/03 11:49:20;;;;;;;0.95;0.95;;;;;;;;;;4918954;29;20055;-77
2022/10/03 11:51:49;;;;;;;2.85;1.00;;;;;;;;;;4934913;29;20126;-78
2022/10/03 11:54:21;;;;;;;1.30;1.20;;;;;;;;;;4932059;29;20439;-76
2022/10/03 11:56:50;;;;;;;1.25;1.10;;;;;;;;;;4927692;29;20071;-76
2022/10/03 11:59:17;;;;;;;0.57;0.57;;;;;;;;;;4930442;29;20044;-75
2022/10/03 12:02:01;;;;;;;2.72;0.70;;;;;;;;;;4933175;29;20039;-77
2022/10/03 12:04:27;;;;;;;0.63;0.63;;;;;;;;;;4932729;29;20062;-76
2022/10/03 12:09:54;;;;;;;1.02;1.02;;;;;;;;;;4931150;29;20050;-77
2022/10/03 12:12:29;;;;;;;0.77;0.77;;;;;;;;;;4915658;29;20039;-78
2022/10/03 12:15:03;;;;;;;0.85;0.85;;;;;;;;;;4932514;29;20039;-78
2022/10/03 12:17:36;;;;;;;0.50;0.50;;;;;;;;;;4932429;29;20047;-77
2022/10/03 12:20:05;;;;;;;1.02;0.70;;;;;;;;;;4899912;29;20044;-78
2022/10/03 12:22:34;;;;;;;0.60;0.60;;;;;;;;;;4932495;29;20044;-76
2022/10/03 12:25:01;;;;;;;0.70;0.70;;;;;;;;;;4932551;29;20051;-78
2022/10/03 12:28:02;;;;;;;0.60;0.60;;;;;;;;;;4915539;29;20541;-76
2022/10/03 12:30:30;;;;;;;0.82;0.82;;;;;;;;;;4899740;29;20031;-76
2022/10/03 12:33:04;;;;;;;0.65;0.65;;;;;;;;;;4931286;29;20103;-76
2022/10/03 12:35:30;;;;;;;4.20;0.85;;;;;;;;;;4915785;29;20094;-81
2022/10/03 12:38:00;;;;;;;4.28;0.77;;;;;;;;;;4934587;29;20504;-76
2022/10/03 12:40:50;;;;;;;1.08;1.08;;;;;;;;;;4909304;29;20048;-77
2022/10/03 12:43:24;;;;;;;1.15;0.90;;;;;;;;;;4884772;29;20084;-74
2022/10/03 12:46:05;;;;;;;1.83;1.00;;;;;;;;;;4918887;29;20079;-73
2022/10/03 12:48:31;;;;;;;;;;;;;;;;;;4937700;29;20050;-79
2022/10/03 12:51:06;;;;;;;1.13;1.10;;;;;;;;;;4937892;29;19994;-78
2022/10/03 12:53:50;;;;;;;1.13;1.13;;;;;;;;;;4925953;29;20075;-78
2022/10/03 12:56:21;;;;;;;1.92;1.23;;;;;;;;;;4921765;29;20054;-78
2022/10/03 12:58:59;;;;;;;0.80;0.80;;;;;;;;;;4914820;29;20067;-77
2022/10/03 13:01:27;;;;;;;0.70;0.70;;;;;;;;;;4931698;29;20071;-78
2022/10/03 13:03:54;;;;;;;0.70;0.70;;;;;;;;;;4914542;29;20048;-77
2022/10/03 13:06:20;;;;;;;0.70;0.70;;;;;;;;;;4914546;29;20627;-78
2022/10/03 13:08:50;;;;;;;0.73;0.73;;;;;;;;;;4931088;29;20123;-79
2022/10/03 13:11:15;;;;;;;0.80;0.80;;;;;;;;;;4932120;29;20078;-77
2022/10/03 13:14:17;;;;;;;2.78;0.68;;;;;;;;;;4932353;29;20103;-84
2022/10/03 13:16:44;;;;;;;0.70;0.70;;;;;;;;;;4876671;29;20048;-79
2022/10/03 13:19:22;;;;;;;2.45;0.80;;;;;;;;;;4919940;29;20035;-78
2022/10/03 13:21:48;;;;;;;0.70;0.70;;;;;;;;;;4931619;29;20043;-79
2022/10/03 13:24:21;;;;;;;0.63;0.63;;;;;;;;;;4931336;29;20043;-79
2022/10/03 13:26:56;;;;;;;1.63;0.88;;;;;;;;;;4931702;29;20126;-79
2022/10/03 13:29:24;;;;;;;0.60;0.60;;;;;;;;;;4931027;29;20872;-79
2022/10/03 13:31:56;;;;;;;0.80;0.80;;;;;;;;;;4898834;29;20043;-77
2022/10/03 13:34:27;;;;;;;0.95;0.70;;;;;;;;;;4914095;29;20036;-78
2022/10/03 13:36:54;;;;;;;0.80;0.80;;;;;;;;;;4914731;29;20043;-80
2022/10/03 13:39:28;;;;;;;1.13;0.70;;;;;;;;;;4914716;29;20059;-79
2022/10/03 13:42:13;;;;;;;1.00;0.98;;;;;;;;;;4914560;29;20401;-79
2022/10/03 13:45:05;;;;;;;0.90;0.90;;;;;;;;;;4914602;29;21600;-75
2022/10/03 13:47:54;;;;;;;0.70;0.70;;;;;;;;;;4912457;29;20047;-72
2022/10/03 13:50:20;;;;;;;0.60;0.60;;;;;;;;;;4930810;29;20420;-73
2022/10/03 13:52:57;;;;;;;0.90;0.90;;;;;;;;;;4931345;29;20043;-74
2022/10/03 13:55:42;;;;;;;1.15;1.00;;;;;;;;;;4913842;29;20047;-74
2022/10/03 13:58:25;;;;;;;2.38;1.00;;;;;;;;;;4930038;29;20044;-74
2022/10/03 14:00:51;;;;;;;0.88;0.88;;;;;;;;;;4910755;29;20060;-74
2022/10/03 14:03:35;;;;;;;1.10;1.00;;;;;;;;;;4924742;29;20106;-74
2022/10/03 14:06:13;;;;;;;0.80;0.80;;;;;;;;;;4930656;29;20051;-74
2022/10/03 14:08:42;;;;;;;1.08;0.90;;;;;;;;;;4913862;29;20103;-74
2022/10/03 14:11:13;;;;;;;1.17;0.70;;;;;;;;;;4930778;29;20040;-73
2022/10/03 14:13:48;;;;;;;0.80;0.80;;;;;;;;;;4913378;29;20079;-73
2022/10/03 14:16:19;;;;;;;0.70;0.70;;;;;;;;;;4930700;29;20522;-72
2022/10/03 14:18:44;;;;;;;;;;;;;;;;;;4931089;29;20640;-72
2022/10/03 14:21:16;;;;;;;1.10;0.80;;;;;;;;;;4929616;29;20013;-73
2022/10/03 14:23:42;;;;;;;0.60;0.60;;;;;;;;;;4915683;29;20043;-74
2022/10/03 14:26:14;;;;;;;1.52;0.70;;;;;;;;;;4933299;29;20056;-74
2022/10/03 14:28:55;;;;;;;1.40;0.80;;;;;;;;;;4933203;29;20044;-74
2022/10/03 14:31:24;;;;;;;0.70;0.70;;;;;;;;;;4915048;29;20393;-73
2022/10/03 14:33:56;;;;;;;1.55;0.73;;;;;;;;;;4933953;29;20039;-73
2022/10/03 14:36:33;;;;;;;1.02;1.02;;;;;;;;;;4933306;29;20048;-73
2022/10/03 14:39:03;;;;;;;0.85;0.85;;;;;;;;;;4933819;29;20040;-74
2022/10/03 14:41:32;;;;;;;0.90;0.90;;;;;;;;;;4934413;29;20138;-75
2022/10/03 14:43:59;;;;;;;0.90;0.90;;;;;;;;;;4934374;29;20536;-74
2022/10/03 14:46:26;;;;;;;0.80;0.80;;;;;;;;;;4933821;29;20265;-75
2022/10/03 14:48:57;;;;;;;0.80;0.80;;;;;;;;;;4934527;29;20044;-74
2022/10/03 14:51:31;;;;;;;1.10;0.90;;;;;;;;;;4917886;29;20048;-74
2022/10/03 14:54:01;;;;;;;2.53;0.93;;;;;;;;;;4902022;29;20032;-74
2022/10/03 14:56:27;;;;;;;1.08;1.05;;;;;;;;;;4917999;29;20054;-74
2022/10/03 14:58:53;;;;;;;1.30;1.27;;;;;;;;;;4917615;29;20035;-74
2022/10/03 15:01:28;;;;;;;1.38;1.02;;;;;;;;;;4917737;29;20106;-74
2022/10/03 15:04:00;;;;;;;1.83;0.93;;;;;;;;;;4934362;29;20484;-74
2022/10/03 15:06:26;;;;;;;1.10;1.10;;;;;;;;;;4933946;29;20436;-74
2022/10/03 15:08:52;;;;;;;1.85;0.95;;;;;;;;;;4934529;29;20043;-74
2022/10/03 15:11:37;;;;;;;0.98;0.98;;;;;;;;;;4917412;29;20051;-73
2022/10/03 15:14:08;;;;;;;5.07;1.33;;;;;;;;;;4917457;29;20044;-74
2022/10/03 15:16:35;;;;;;;;;;;;;;;;;;4917895;29;20560;-74
2022/10/03 15:19:02;;;;;;;0.90;0.80;;;;;;;;;;4934232;29;20307;-73
2022/10/03 15:21:28;;;;;;;0.90;0.90;;;;;;;;;;4934296;29;20590;-74
2022/10/03 15:24:04;;;;;;;1.00;1.00;;;;;;;;;;4901625;29;20130;-73
2022/10/03 15:26:33;;;;;;;0.98;0.98;;;;;;;;;;4901055;29;20051;-74
2022/10/03 15:28:59;;;;;;;1.58;1.30;;;;;;;;;;4917165;29;20039;-74
2022/10/03 15:31:25;;;;;;;1.10;1.10;;;;;;;;;;4916370;29;20058;-75
2022/10/03 15:33:51;;;;;;;1.00;1.00;;;;;;;;;;4934587;29;20141;-74
2022/10/03 15:36:21;;;;;;;1.27;1.10;;;;;;;;;;4918493;29;20073;-74
2022/10/03 15:38:48;;;;;;;0.97;0.97;;;;;;;;;;4934323;29;20516;-74
2022/10/03 15:41:18;;;;;;;1.08;0.73;;;;;;;;;;4916900;29;20147;-74
2022/10/03 15:43:51;;;;;;;1.02;1.00;;;;;;;;;;4917338;29;20400;-74
2022/10/03 15:46:20;;;;;;;2.08;0.90;;;;;;;;;;4871907;29;20522;-74
2022/10/03 15:48:50;;;;;;;1.02;0.90;;;;;;;;;;4911827;29;20571;-74
2022/10/03 15:51:17;;;;;;;2.30;0.90;;;;;;;;;;4897844;29;20071;-74
2022/10/03 15:53:43;;;;;;;0.73;0.73;;;;;;;;;;4914359;29;20568;-74
2022/10/03 15:56:17;;;;;;;0.93;0.93;;;;;;;;;;4897552;29;20135;-74
2022/10/03 15:58:47;;;;;;;0.98;0.90;;;;;;;;;;4897972;29;20512;-74
2022/10/03 16:01:19;;;;;;;0.75;0.75;;;;;;;;;;4914239;29;20413;-75
2022/10/03 16:03:46;;;;;;;0.90;0.90;;;;;;;;;;4881610;29;20127;-74
2022/10/03 16:06:16;;;;;;;0.90;0.90;;;;;;;;;;4897544;29;20111;-73